Time,TemperatureF,DewpointF,PressureIn,WindDirection,WindDirectionDegrees,WindSpeedMPH,WindSpeedGustMPH,Humidity,HourlyPrecipIn,Conditions,Clouds,dailyrainin,SoftwareType,DateUTC
2013-07-25 00:00:00,55.0,51.0,29.97,West,265,4.0,13.0,85,0.00,,,0.00,,2013-07-25 08:00:00,
2013-07-25 00:32:00,55.0,51.0,29.97,West,265,4.0,13.0,85,0.00,,,0.00,,2013-07-25 08:32:00,
2013-07-25 00:44:00,55.0,51.0,29.97,West,265,4.0,13.0,85,0.00,,,0.00,,2013-07-25 08:44:00,
2013-07-25 00:52:00,55.0,51.0,29.97,West,265,4.0,13.0,85,0.00,,,0.00,,2013-07-25 08:52:00,
2013-07-25 01:00:00,54.0,50.0,29.98,WNW,288,5.0,10.0,85,0.00,,,0.00,,2013-07-25 09:00:00,
2013-07-25 01:43:00,54.0,50.0,29.98,WNW,288,5.0,10.0,85,0.00,,,0.00,,2013-07-25 09:43:00,
2013-07-25 01:53:00,54.0,50.0,29.98,WNW,288,5.0,10.0,85,0.00,,,0.00,,2013-07-25 09:53:00,
2013-07-25 02:00:00,53.0,49.0,29.98,West,281,3.0,9.0,87,0.00,,,0.00,,2013-07-25 10:00:00,
2013-07-25 02:42:00,53.0,49.0,29.98,West,281,3.0,9.0,87,0.00,,,0.00,,2013-07-25 10:42:00,
2013-07-25 02:53:00,53.0,49.0,29.98,West,281,3.0,9.0,87,0.00,,,0.00,,2013-07-25 10:53:00,
2013-07-25 03:00:00,52.0,48.0,29.99,WNW,292,4.0,8.0,87,0.00,,,0.00,,2013-07-25 11:00:00,
2013-07-25 03:43:00,52.0,48.0,29.99,WNW,292,4.0,8.0,87,0.00,,,0.00,,2013-07-25 11:43:00,
2013-07-25 03:52:00,52.0,48.0,29.99,WNW,292,4.0,8.0,87,0.00,,,0.00,,2013-07-25 11:52:00,
2013-07-25 04:00:00,51.0,48.0,29.99,WNW,284,3.0,8.0,91,0.00,,,0.00,,2013-07-25 12:00:00,
2013-07-25 04:45:00,51.0,48.0,29.99,WNW,284,3.0,8.0,91,0.00,,,0.00,,2013-07-25 12:45:00,
2013-07-25 04:53:00,51.0,48.0,29.99,WNW,284,3.0,8.0,91,0.00,,,0.00,,2013-07-25 12:53:00,
2013-07-25 05:00:00,51.0,48.0,29.99,West,275,5.0,9.0,91,0.00,,,0.00,,2013-07-25 13:00:00,
2013-07-25 05:43:00,51.0,48.0,29.99,West,275,5.0,9.0,91,0.00,,,0.00,,2013-07-25 13:43:00,
2013-07-25 05:53:00,51.0,48.0,29.99,West,275,5.0,9.0,91,0.00,,,0.00,,2013-07-25 13:53:00,
2013-07-25 06:00:00,51.0,48.0,29.99,West,274,6.0,13.0,88,0.00,,,0.00,,2013-07-25 14:00:00,
2013-07-25 06:33:00,51.0,48.0,29.99,West,274,6.0,13.0,88,0.00,,,0.00,,2013-07-25 14:33:00,
2013-07-25 06:43:00,51.0,48.0,29.99,West,274,6.0,13.0,88,0.00,,,0.00,,2013-07-25 14:43:00,
2013-07-25 06:53:00,51.0,48.0,29.99,West,274,6.0,13.0,88,0.00,,,0.00,,2013-07-25 14:53:00,
2013-07-25 07:00:00,51.0,47.0,30.00,West,278,4.0,11.0,86,0.00,,,0.00,,2013-07-25 15:00:00,
2013-07-25 07:44:00,51.0,47.0,30.00,West,278,4.0,11.0,86,0.00,,,0.00,,2013-07-25 15:44:00,
2013-07-25 07:53:00,51.0,47.0,30.00,West,278,4.0,11.0,86,0.00,,,0.00,,2013-07-25 15:53:00,
2013-07-25 08:00:00,51.0,46.0,30.00,West,279,4.0,12.0,84,0.00,,,0.00,,2013-07-25 16:00:00,
2013-07-25 08:45:00,51.0,46.0,30.00,West,279,4.0,12.0,84,0.00,,,0.00,,2013-07-25 16:45:00,
2013-07-25 08:53:00,51.0,46.0,30.00,West,279,4.0,12.0,84,0.00,,,0.00,,2013-07-25 16:53:00,
2013-07-25 09:00:00,56.0,47.0,30.01,West,266,4.0,9.0,71,0.00,,,0.00,,2013-07-25 17:00:00,
2013-07-25 09:43:00,56.0,47.0,30.01,West,266,4.0,9.0,71,0.00,,,0.00,,2013-07-25 17:43:00,
2013-07-25 09:53:00,56.0,47.0,30.01,West,266,4.0,9.0,71,0.00,,,0.00,,2013-07-25 17:53:00,
2013-07-25 10:00:00,58.0,46.0,30.01,WSW,256,5.0,10.0,64,0.00,,,0.00,,2013-07-25 18:00:00,
2013-07-25 10:33:00,58.0,46.0,30.01,WSW,256,5.0,10.0,64,0.00,,,0.00,,2013-07-25 18:33:00,
2013-07-25 10:43:00,58.0,46.0,30.01,WSW,256,5.0,10.0,64,0.00,,,0.00,,2013-07-25 18:43:00,
2013-07-25 10:52:00,58.0,46.0,30.01,WSW,256,5.0,10.0,64,0.00,,,0.00,,2013-07-25 18:52:00,
2013-07-25 11:00:00,61.0,40.0,30.02,WNW,283,6.0,12.0,46,0.00,,,0.00,,2013-07-25 19:00:00,
2013-07-25 11:43:00,61.0,40.0,30.02,WNW,283,6.0,12.0,46,0.00,,,0.00,,2013-07-25 19:43:00,
2013-07-25 11:53:00,61.0,40.0,30.02,WNW,283,6.0,12.0,46,0.00,,,0.00,,2013-07-25 19:53:00,
2013-07-25 12:00:00,63.0,42.0,30.02,West,261,6.0,13.0,46,0.00,,,0.00,,2013-07-25 20:00:00,
2013-07-25 12:43:00,63.0,42.0,30.02,West,261,6.0,13.0,46,0.00,,,0.00,,2013-07-25 20:43:00,
2013-07-25 12:53:00,63.0,42.0,30.02,West,261,6.0,13.0,46,0.00,,,0.00,,2013-07-25 20:53:00,
2013-07-25 13:00:00,65.0,39.0,30.03,West,274,7.0,15.0,38,0.00,,,0.00,,2013-07-25 21:00:00,
2013-07-25 13:44:00,65.0,39.0,30.03,West,274,7.0,15.0,38,0.00,,,0.00,,2013-07-25 21:44:00,
2013-07-25 13:52:00,65.0,39.0,30.03,West,274,7.0,15.0,38,0.00,,,0.00,,2013-07-25 21:52:00,
2013-07-25 14:00:00,66.0,40.0,30.02,West,261,5.0,14.0,39,0.00,,,0.00,,2013-07-25 22:00:00,
2013-07-25 14:43:00,66.0,40.0,30.02,West,261,5.0,14.0,39,0.00,,,0.00,,2013-07-25 22:43:00,
2013-07-25 14:52:00,66.0,40.0,30.02,West,261,5.0,14.0,39,0.00,,,0.00,,2013-07-25 22:52:00,
2013-07-25 15:00:00,67.0,40.0,30.02,West,281,7.0,14.0,37,0.00,,,0.00,,2013-07-25 23:00:00,
2013-07-25 15:43:00,67.0,40.0,30.02,West,281,7.0,14.0,37,0.00,,,0.00,,2013-07-25 23:43:00,
2013-07-25 15:52:00,67.0,40.0,30.02,West,281,7.0,14.0,37,0.00,,,0.00,,2013-07-25 23:52:00,
2013-07-25 16:00:00,67.0,39.0,30.03,West,267,6.0,16.0,36,0.00,,,-99.99,,2013-07-26 00:00:00,
2013-07-25 16:43:00,67.0,39.0,30.03,West,267,6.0,16.0,36,0.00,,,-99.99,,2013-07-26 00:43:00,
2013-07-25 16:52:00,67.0,39.0,30.03,West,267,6.0,16.0,36,0.00,,,-99.99,,2013-07-26 00:52:00,
2013-07-25 17:00:00,69.0,38.0,30.02,WSW,252,7.0,16.0,32,0.00,,,0.00,,2013-07-26 01:00:00,
2013-07-25 17:43:00,69.0,38.0,30.02,WSW,252,7.0,16.0,32,0.00,,,0.00,,2013-07-26 01:43:00,
2013-07-25 17:52:00,69.0,38.0,30.02,WSW,252,7.0,16.0,32,0.00,,,0.00,,2013-07-26 01:52:00,
2013-07-25 18:00:00,69.0,36.0,30.02,WSW,257,6.0,15.0,30,0.00,,,0.00,,2013-07-26 02:00:00,
2013-07-25 18:43:00,69.0,36.0,30.02,WSW,257,6.0,15.0,30,0.00,,,0.00,,2013-07-26 02:43:00,
2013-07-25 18:52:00,69.0,36.0,30.02,WSW,257,6.0,15.0,30,0.00,,,0.00,,2013-07-26 02:52:00,
2013-07-25 19:00:00,68.0,40.0,30.02,WSW,254,6.0,16.0,36,0.00,,,0.00,,2013-07-26 03:00:00,
2013-07-25 19:44:00,68.0,40.0,30.02,WSW,254,6.0,16.0,36,0.00,,,0.00,,2013-07-26 03:44:00,
2013-07-25 19:53:00,68.0,40.0,30.02,WSW,254,6.0,16.0,36,0.00,,,0.00,,2013-07-26 03:53:00,
2013-07-25 20:00:00,66.0,42.0,30.02,WSW,247,6.0,12.0,42,0.00,,,0.00,,2013-07-26 04:00:00,
2013-07-25 20:43:00,66.0,42.0,30.02,WSW,247,6.0,12.0,42,0.00,,,0.00,,2013-07-26 04:43:00,
2013-07-25 20:53:00,66.0,42.0,30.02,WSW,247,6.0,12.0,42,0.00,,,0.00,,2013-07-26 04:53:00,
2013-07-25 21:00:00,62.0,45.0,30.03,SW,232,4.0,12.0,53,0.00,,,0.00,,2013-07-26 05:00:00,
2013-07-25 21:32:00,62.0,45.0,30.03,SW,232,4.0,12.0,53,0.00,,,0.00,,2013-07-26 05:32:00,
2013-07-25 21:43:00,62.0,45.0,30.03,SW,232,4.0,12.0,53,0.00,,,0.00,,2013-07-26 05:43:00,
2013-07-25 21:52:00,62.0,45.0,30.03,SW,232,4.0,12.0,53,0.00,,,0.00,,2013-07-26 05:52:00,
2013-07-25 22:00:00,58.0,45.0,30.04,WSW,241,3.0,8.0,61,0.00,,,0.00,,2013-07-26 06:00:00,
2013-07-25 22:33:00,58.0,45.0,30.04,WSW,241,3.0,8.0,61,0.00,,,0.00,,2013-07-26 06:33:00,
2013-07-25 22:43:00,58.0,45.0,30.04,WSW,241,3.0,8.0,61,0.00,,,0.00,,2013-07-26 06:43:00,
2013-07-25 22:52:00,58.0,45.0,30.04,WSW,241,3.0,8.0,61,0.00,,,0.00,,2013-07-26 06:52:00,
2013-07-25 23:00:00,57.0,43.0,30.05,WSW,242,3.0,8.0,59,0.00,,,0.00,,2013-07-26 07:00:00,
2013-07-25 23:32:00,57.0,43.0,30.05,WSW,242,3.0,8.0,59,0.00,,,0.00,,2013-07-26 07:32:00,
2013-07-25 23:43:00,57.0,43.0,30.05,WSW,242,3.0,8.0,59,0.00,,,0.00,,2013-07-26 07:43:00,
2013-07-25 23:53:00,57.0,43.0,30.05,WSW,242,3.0,8.0,59,0.00,,,0.00,,2013-07-26 07:53:00,